sensor_id;sensor_type;location;lat;lon;timestamp;P1;durP1;ratioP1;P2;durP2;ratioP2
15153;SDS011;7677;41.896;25.004;2024-02-14T00:02:22;0.70;;;0.70;;
15153;SDS011;7677;41.896;25.004;2024-02-14T00:04:51;0.60;;;0.60;;
15153;SDS011;7677;41.896;25.004;2024-02-14T00:07:18;0.50;;;0.50;;
15153;SDS011;7677;41.896;25.004;2024-02-14T00:09:45;0.50;;;0.50;;
15153;SDS011;7677;41.896;25.004;2024-02-14T00:12:13;0.60;;;0.60;;
15153;SDS011;7677;41.896;25.004;2024-02-14T00:14:41;0.50;;;0.50;;
15153;SDS011;7677;41.896;25.004;2024-02-14T00:17:09;0.53;;;0.53;;
15153;SDS011;7677;41.896;25.004;2024-02-14T00:19:37;0.60;;;0.60;;
15153;SDS011;7677;41.896;25.004;2024-02-14T00:22:05;2.77;;;0.80;;
15153;SDS011;7677;41.896;25.004;2024-02-14T00:24:32;0.50;;;0.50;;
15153;SDS011;7677;41.896;25.004;2024-02-14T00:27:01;0.50;;;0.50;;
15153;SDS011;7677;41.896;25.004;2024-02-14T00:29:28;0.40;;;0.40;;
15153;SDS011;7677;41.896;25.004;2024-02-14T00:31:57;0.40;;;0.40;;
15153;SDS011;7677;41.896;25.004;2024-02-14T00:34:24;0.70;;;0.70;;
15153;SDS011;7677;41.896;25.004;2024-02-14T00:36:52;0.70;;;0.70;;
15153;SDS011;7677;41.896;25.004;2024-02-14T00:39:19;0.60;;;0.60;;
15153;SDS011;7677;41.896;25.004;2024-02-14T00:41:46;0.60;;;0.60;;
15153;SDS011;7677;41.896;25.004;2024-02-14T00:44:14;0.47;;;0.47;;
15153;SDS011;7677;41.896;25.004;2024-02-14T00:46:42;0.47;;;0.47;;
15153;SDS011;7677;41.896;25.004;2024-02-14T00:49:11;0.50;;;0.50;;
15153;SDS011;7677;41.896;25.004;2024-02-14T00:51:38;0.60;;;0.60;;
15153;SDS011;7677;41.896;25.004;2024-02-14T00:54:06;0.40;;;0.40;;
15153;SDS011;7677;41.896;25.004;2024-02-14T00:56:33;0.53;;;0.53;;
15153;SDS011;7677;41.896;25.004;2024-02-14T00:59:01;1.10;;;1.10;;
15153;SDS011;7677;41.896;25.004;2024-02-14T01:01:28;1.23;;;1.20;;
15153;SDS011;7677;41.896;25.004;2024-02-14T01:03:55;0.70;;;0.70;;
15153;SDS011;7677;41.896;25.004;2024-02-14T01:06:24;0.53;;;0.53;;
15153;SDS011;7677;41.896;25.004;2024-02-14T01:08:51;0.43;;;0.43;;
15153;SDS011;7677;41.896;25.004;2024-02-14T01:11:18;0.40;;;0.40;;
15153;SDS011;7677;41.896;25.004;2024-02-14T01:13:46;0.57;;;0.57;;
15153;SDS011;7677;41.896;25.004;2024-02-14T01:16:13;0.50;;;0.50;;
15153;SDS011;7677;41.896;25.004;2024-02-14T01:18:40;0.40;;;0.40;;
15153;SDS011;7677;41.896;25.004;2024-02-14T01:21:08;0.40;;;0.40;;
15153;SDS011;7677;41.896;25.004;2024-02-14T01:23:36;0.60;;;0.60;;
15153;SDS011;7677;41.896;25.004;2024-02-14T01:26:04;0.50;;;0.50;;
15153;SDS011;7677;41.896;25.004;2024-02-14T01:28:32;0.50;;;0.50;;
15153;SDS011;7677;41.896;25.004;2024-02-14T01:30:59;0.63;;;0.63;;
15153;SDS011;7677;41.896;25.004;2024-02-14T01:33:26;0.50;;;0.50;;
15153;SDS011;7677;41.896;25.004;2024-02-14T01:35:56;0.30;;;0.30;;
15153;SDS011;7677;41.896;25.004;2024-02-14T01:38:23;0.50;;;0.50;;
15153;SDS011;7677;41.896;25.004;2024-02-14T01:40:52;0.43;;;0.43;;
15153;SDS011;7677;41.896;25.004;2024-02-14T01:43:19;0.50;;;0.50;;
15153;SDS011;7677;41.896;25.004;2024-02-14T01:45:47;0.50;;;0.50;;
15153;SDS011;7677;41.896;25.004;2024-02-14T01:48:14;0.70;;;0.70;;
15153;SDS011;7677;41.896;25.004;2024-02-14T01:50:43;0.60;;;0.60;;
15153;SDS011;7677;41.896;25.004;2024-02-14T01:53:11;0.43;;;0.43;;
15153;SDS011;7677;41.896;25.004;2024-02-14T01:55:38;0.60;;;0.60;;
15153;SDS011;7677;41.896;25.004;2024-02-14T01:58:07;0.50;;;0.50;;
15153;SDS011;7677;41.896;25.004;2024-02-14T02:00:34;1.10;;;1.00;;
15153;SDS011;7677;41.896;25.004;2024-02-14T02:03:02;0.80;;;0.80;;
15153;SDS011;7677;41.896;25.004;2024-02-14T02:05:30;0.70;;;0.70;;
15153;SDS011;7677;41.896;25.004;2024-02-14T02:07:59;0.70;;;0.70;;
15153;SDS011;7677;41.896;25.004;2024-02-14T02:10:26;0.70;;;0.70;;
15153;SDS011;7677;41.896;25.004;2024-02-14T02:12:57;0.57;;;0.57;;
15153;SDS011;7677;41.896;25.004;2024-02-14T02:15:27;0.53;;;0.53;;
15153;SDS011;7677;41.896;25.004;2024-02-14T02:17:56;0.60;;;0.60;;
15153;SDS011;7677;41.896;25.004;2024-02-14T02:20:24;0.63;;;0.63;;
15153;SDS011;7677;41.896;25.004;2024-02-14T02:22:54;0.50;;;0.50;;
15153;SDS011;7677;41.896;25.004;2024-02-14T02:25:21;0.60;;;0.60;;
15153;SDS011;7677;41.896;25.004;2024-02-14T02:27:51;0.50;;;0.50;;
15153;SDS011;7677;41.896;25.004;2024-02-14T02:30:23;0.60;;;0.60;;
15153;SDS011;7677;41.896;25.004;2024-02-14T02:32:50;0.50;;;0.50;;
15153;SDS011;7677;41.896;25.004;2024-02-14T02:35:17;0.50;;;0.50;;
15153;SDS011;7677;41.896;25.004;2024-02-14T02:37:45;0.50;;;0.50;;
15153;SDS011;7677;41.896;25.004;2024-02-14T02:40:14;0.50;;;0.50;;
15153;SDS011;7677;41.896;25.004;2024-02-14T02:42:42;0.50;;;0.50;;
15153;SDS011;7677;41.896;25.004;2024-02-14T02:45:10;0.57;;;0.57;;
15153;SDS011;7677;41.896;25.004;2024-02-14T02:47:37;0.70;;;0.70;;
15153;SDS011;7677;41.896;25.004;2024-02-14T02:50:05;0.50;;;0.50;;
15153;SDS011;7677;41.896;25.004;2024-02-14T02:52:33;0.40;;;0.40;;
15153;SDS011;7677;41.896;25.004;2024-02-14T02:55:00;0.50;;;0.50;;
15153;SDS011;7677;41.896;25.004;2024-02-14T02:57:29;0.57;;;0.57;;
15153;SDS011;7677;41.896;25.004;2024-02-14T02:59:57;0.50;;;0.50;;
15153;SDS011;7677;41.896;25.004;2024-02-14T03:02:24;0.50;;;0.50;;
15153;SDS011;7677;41.896;25.004;2024-02-14T03:04:52;0.50;;;0.50;;
15153;SDS011;7677;41.896;25.004;2024-02-14T03:07:19;1.20;;;0.50;;
15153;SDS011;7677;41.896;25.004;2024-02-14T03:09:48;0.50;;;0.50;;
15153;SDS011;7677;41.896;25.004;2024-02-14T03:12:15;0.60;;;0.60;;
15153;SDS011;7677;41.896;25.004;2024-02-14T03:14:45;0.50;;;0.50;;
15153;SDS011;7677;41.896;25.004;2024-02-14T03:17:12;1.07;;;0.60;;
15153;SDS011;7677;41.896;25.004;2024-02-14T03:19:40;0.50;;;0.50;;
15153;SDS011;7677;41.896;25.004;2024-02-14T03:22:07;0.40;;;0.40;;
15153;SDS011;7677;41.896;25.004;2024-02-14T03:24:35;0.60;;;0.60;;
15153;SDS011;7677;41.896;25.004;2024-02-14T03:27:03;0.50;;;0.50;;
15153;SDS011;7677;41.896;25.004;2024-02-14T03:29:31;0.60;;;0.60;;
15153;SDS011;7677;41.896;25.004;2024-02-14T03:32:01;0.57;;;0.57;;
15153;SDS011;7677;41.896;25.004;2024-02-14T03:34:30;0.63;;;0.63;;
15153;SDS011;7677;41.896;25.004;2024-02-14T03:36:59;0.60;;;0.60;;
15153;SDS011;7677;41.896;25.004;2024-02-14T03:39:28;0.70;;;0.70;;
15153;SDS011;7677;41.896;25.004;2024-02-14T03:41:55;1.10;;;1.00;;
15153;SDS011;7677;41.896;25.004;2024-02-14T03:44:24;0.80;;;0.80;;
15153;SDS011;7677;41.896;25.004;2024-02-14T03:46:51;0.90;;;0.90;;
15153;SDS011;7677;41.896;25.004;2024-02-14T03:49:20;0.90;;;0.90;;
15153;SDS011;7677;41.896;25.004;2024-02-14T03:51:47;1.10;;;1.10;;
15153;SDS011;7677;41.896;25.004;2024-02-14T03:54:18;0.90;;;0.90;;
15153;SDS011;7677;41.896;25.004;2024-02-14T03:56:45;1.00;;;1.00;;
15153;SDS011;7677;41.896;25.004;2024-02-14T03:59:12;1.17;;;1.07;;
15153;SDS011;7677;41.896;25.004;2024-02-14T04:01:43;1.20;;;1.10;;
15153;SDS011;7677;41.896;25.004;2024-02-14T04:04:11;1.00;;;1.00;;
15153;SDS011;7677;41.896;25.004;2024-02-14T04:06:40;1.47;;;1.10;;
15153;SDS011;7677;41.896;25.004;2024-02-14T04:09:07;1.33;;;1.20;;
15153;SDS011;7677;41.896;25.004;2024-02-14T04:11:34;0.90;;;0.90;;
15153;SDS011;7677;41.896;25.004;2024-02-14T04:14:02;0.93;;;0.90;;
15153;SDS011;7677;41.896;25.004;2024-02-14T04:16:29;0.80;;;0.80;;
15153;SDS011;7677;41.896;25.004;2024-02-14T04:18:56;0.87;;;0.87;;
15153;SDS011;7677;41.896;25.004;2024-02-14T04:21:24;0.70;;;0.70;;
15153;SDS011;7677;41.896;25.004;2024-02-14T04:23:52;0.80;;;0.80;;
15153;SDS011;7677;41.896;25.004;2024-02-14T04:26:20;0.70;;;0.70;;
15153;SDS011;7677;41.896;25.004;2024-02-14T04:28:47;0.70;;;0.70;;
15153;SDS011;7677;41.896;25.004;2024-02-14T04:31:14;0.73;;;0.73;;
15153;SDS011;7677;41.896;25.004;2024-02-14T04:33:41;1.07;;;0.93;;
15153;SDS011;7677;41.896;25.004;2024-02-14T04:36:09;1.00;;;0.80;;
15153;SDS011;7677;41.896;25.004;2024-02-14T04:38:36;1.00;;;1.00;;
15153;SDS011;7677;41.896;25.004;2024-02-14T04:41:07;3.30;;;1.40;;
15153;SDS011;7677;41.896;25.004;2024-02-14T04:43:35;1.13;;;1.13;;
15153;SDS011;7677;41.896;25.004;2024-02-14T04:46:02;1.17;;;1.00;;
15153;SDS011;7677;41.896;25.004;2024-02-14T04:48:32;1.17;;;1.00;;
15153;SDS011;7677;41.896;25.004;2024-02-14T04:51:00;1.10;;;1.10;;
15153;SDS011;7677;41.896;25.004;2024-02-14T04:53:27;1.23;;;1.13;;
15153;SDS011;7677;41.896;25.004;2024-02-14T04:55:54;0.90;;;0.90;;
15153;SDS011;7677;41.896;25.004;2024-02-14T04:58:23;1.47;;;1.00;;
15153;SDS011;7677;41.896;25.004;2024-02-14T05:00:51;1.30;;;1.20;;
15153;SDS011;7677;41.896;25.004;2024-02-14T05:03:20;1.27;;;1.17;;
15153;SDS011;7677;41.896;25.004;2024-02-14T05:05:49;0.80;;;0.80;;
15153;SDS011;7677;41.896;25.004;2024-02-14T05:08:17;0.93;;;0.93;;
15153;SDS011;7677;41.896;25.004;2024-02-14T05:10:44;0.90;;;0.90;;
15153;SDS011;7677;41.896;25.004;2024-02-14T05:13:11;1.30;;;1.20;;
15153;SDS011;7677;41.896;25.004;2024-02-14T05:15:42;1.90;;;1.00;;
15153;SDS011;7677;41.896;25.004;2024-02-14T05:18:09;0.90;;;0.90;;
15153;SDS011;7677;41.896;25.004;2024-02-14T05:20:36;0.93;;;0.93;;
15153;SDS011;7677;41.896;25.004;2024-02-14T05:23:04;0.83;;;0.83;;
15153;SDS011;7677;41.896;25.004;2024-02-14T05:25:31;0.80;;;0.80;;
15153;SDS011;7677;41.896;25.004;2024-02-14T05:27:59;0.80;;;0.80;;
15153;SDS011;7677;41.896;25.004;2024-02-14T05:30:26;0.80;;;0.80;;
15153;SDS011;7677;41.896;25.004;2024-02-14T05:32:55;0.97;;;0.97;;
15153;SDS011;7677;41.896;25.004;2024-02-14T05:35:22;0.80;;;0.80;;
15153;SDS011;7677;41.896;25.004;2024-02-14T05:37:49;0.87;;;0.87;;
15153;SDS011;7677;41.896;25.004;2024-02-14T05:40:17;1.00;;;1.00;;
15153;SDS011;7677;41.896;25.004;2024-02-14T05:42:44;0.67;;;0.67;;
15153;SDS011;7677;41.896;25.004;2024-02-14T05:45:12;0.80;;;0.80;;
15153;SDS011;7677;41.896;25.004;2024-02-14T05:47:39;0.70;;;0.70;;
15153;SDS011;7677;41.896;25.004;2024-02-14T05:50:09;0.70;;;0.70;;
15153;SDS011;7677;41.896;25.004;2024-02-14T05:52:38;0.73;;;0.73;;
15153;SDS011;7677;41.896;25.004;2024-02-14T05:55:05;0.90;;;0.90;;
15153;SDS011;7677;41.896;25.004;2024-02-14T05:57:34;0.80;;;0.80;;
15153;SDS011;7677;41.896;25.004;2024-02-14T06:00:01;0.60;;;0.60;;
15153;SDS011;7677;41.896;25.004;2024-02-14T06:02:29;0.60;;;0.60;;
15153;SDS011;7677;41.896;25.004;2024-02-14T06:04:57;0.77;;;0.77;;
15153;SDS011;7677;41.896;25.004;2024-02-14T06:07:25;0.80;;;0.80;;
15153;SDS011;7677;41.896;25.004;2024-02-14T06:09:53;0.80;;;0.80;;
15153;SDS011;7677;41.896;25.004;2024-02-14T06:12:20;0.70;;;0.70;;
15153;SDS011;7677;41.896;25.004;2024-02-14T06:14:48;0.80;;;0.80;;
15153;SDS011;7677;41.896;25.004;2024-02-14T06:17:15;0.70;;;0.70;;
15153;SDS011;7677;41.896;25.004;2024-02-14T06:19:43;0.70;;;0.70;;
15153;SDS011;7677;41.896;25.004;2024-02-14T06:22:11;1.07;;;1.07;;
15153;SDS011;7677;41.896;25.004;2024-02-14T06:24:39;0.90;;;0.90;;
15153;SDS011;7677;41.896;25.004;2024-02-14T06:27:07;0.70;;;0.70;;
15153;SDS011;7677;41.896;25.004;2024-02-14T06:29:34;0.80;;;0.80;;
15153;SDS011;7677;41.896;25.004;2024-02-14T06:32:01;0.80;;;0.80;;
15153;SDS011;7677;41.896;25.004;2024-02-14T06:34:29;1.33;;;0.80;;
15153;SDS011;7677;41.896;25.004;2024-02-14T06:36:56;1.47;;;1.37;;
15153;SDS011;7677;41.896;25.004;2024-02-14T06:39:23;1.60;;;1.50;;
15153;SDS011;7677;41.896;25.004;2024-02-14T06:41:52;2.93;;;2.00;;
15153;SDS011;7677;41.896;25.004;2024-02-14T06:44:19;1.63;;;1.53;;
15153;SDS011;7677;41.896;25.004;2024-02-14T06:46:47;0.80;;;0.80;;
15153;SDS011;7677;41.896;25.004;2024-02-14T06:49:15;0.73;;;0.73;;
15153;SDS011;7677;41.896;25.004;2024-02-14T06:51:42;0.80;;;0.80;;
15153;SDS011;7677;41.896;25.004;2024-02-14T06:54:10;0.80;;;0.80;;
15153;SDS011;7677;41.896;25.004;2024-02-14T06:56:38;1.17;;;0.80;;
15153;SDS011;7677;41.896;25.004;2024-02-14T06:59:06;0.80;;;0.80;;
15153;SDS011;7677;41.896;25.004;2024-02-14T07:01:33;0.70;;;0.70;;
15153;SDS011;7677;41.896;25.004;2024-02-14T07:04:01;1.00;;;1.00;;
15153;SDS011;7677;41.896;25.004;2024-02-14T07:06:28;1.10;;;1.10;;
15153;SDS011;7677;41.896;25.004;2024-02-14T07:08:55;0.90;;;0.90;;
15153;SDS011;7677;41.896;25.004;2024-02-14T07:11:23;3.20;;;2.90;;
15153;SDS011;7677;41.896;25.004;2024-02-14T07:13:50;3.10;;;2.80;;
15153;SDS011;7677;41.896;25.004;2024-02-14T07:16:19;4.20;;;3.80;;
15153;SDS011;7677;41.896;25.004;2024-02-14T07:18:46;3.07;;;2.63;;
15153;SDS011;7677;41.896;25.004;2024-02-14T07:21:14;2.23;;;1.90;;
15153;SDS011;7677;41.896;25.004;2024-02-14T07:23:42;1.40;;;1.30;;
15153;SDS011;7677;41.896;25.004;2024-02-14T07:26:09;1.30;;;1.20;;
15153;SDS011;7677;41.896;25.004;2024-02-14T07:28:36;1.00;;;1.00;;
15153;SDS011;7677;41.896;25.004;2024-02-14T07:31:04;1.30;;;1.20;;
15153;SDS011;7677;41.896;25.004;2024-02-14T07:33:32;3.60;;;3.30;;
15153;SDS011;7677;41.896;25.004;2024-02-14T07:35:59;2.70;;;2.50;;
15153;SDS011;7677;41.896;25.004;2024-02-14T07:38:26;2.37;;;2.17;;
15153;SDS011;7677;41.896;25.004;2024-02-14T07:40:54;1.53;;;1.43;;
15153;SDS011;7677;41.896;25.004;2024-02-14T07:43:21;1.00;;;0.90;;
15153;SDS011;7677;41.896;25.004;2024-02-14T07:45:48;10.23;;;6.07;;
15153;SDS011;7677;41.896;25.004;2024-02-14T07:48:15;10.57;;;7.40;;
15153;SDS011;7677;41.896;25.004;2024-02-14T07:50:44;13.13;;;8.43;;
15153;SDS011;7677;41.896;25.004;2024-02-14T07:53:11;5.47;;;3.93;;
15153;SDS011;7677;41.896;25.004;2024-02-14T07:55:38;18.43;;;11.03;;
15153;SDS011;7677;41.896;25.004;2024-02-14T07:58:06;7.27;;;4.80;;
15153;SDS011;7677;41.896;25.004;2024-02-14T08:00:34;8.20;;;5.17;;
15153;SDS011;7677;41.896;25.004;2024-02-14T08:03:01;8.80;;;5.20;;
15153;SDS011;7677;41.896;25.004;2024-02-14T08:05:31;5.57;;;3.37;;
15153;SDS011;7677;41.896;25.004;2024-02-14T08:08:00;5.60;;;3.80;;
15153;SDS011;7677;41.896;25.004;2024-02-14T08:10:27;9.97;;;6.07;;
15153;SDS011;7677;41.896;25.004;2024-02-14T08:12:54;4.50;;;3.93;;
15153;SDS011;7677;41.896;25.004;2024-02-14T08:15:22;3.33;;;3.00;;
15153;SDS011;7677;41.896;25.004;2024-02-14T08:17:49;2.40;;;2.20;;
15153;SDS011;7677;41.896;25.004;2024-02-14T08:20:19;4.40;;;3.80;;
15153;SDS011;7677;41.896;25.004;2024-02-14T08:22:46;3.83;;;3.17;;
15153;SDS011;7677;41.896;25.004;2024-02-14T08:25:15;4.23;;;3.03;;
15153;SDS011;7677;41.896;25.004;2024-02-14T08:27:42;3.43;;;2.83;;
15153;SDS011;7677;41.896;25.004;2024-02-14T08:30:10;3.63;;;2.73;;
15153;SDS011;7677;41.896;25.004;2024-02-14T08:32:38;3.97;;;3.20;;
15153;SDS011;7677;41.896;25.004;2024-02-14T08:35:05;5.27;;;3.90;;
15153;SDS011;7677;41.896;25.004;2024-02-14T08:37:35;6.90;;;5.50;;
15153;SDS011;7677;41.896;25.004;2024-02-14T08:40:03;4.50;;;4.10;;
15153;SDS011;7677;41.896;25.004;2024-02-14T08:42:34;3.30;;;3.00;;
15153;SDS011;7677;41.896;25.004;2024-02-14T08:45:01;3.37;;;2.50;;
15153;SDS011;7677;41.896;25.004;2024-02-14T08:47:28;4.33;;;3.63;;
15153;SDS011;7677;41.896;25.004;2024-02-14T08:49:56;4.80;;;3.60;;
15153;SDS011;7677;41.896;25.004;2024-02-14T08:52:23;4.23;;;3.83;;
15153;SDS011;7677;41.896;25.004;2024-02-14T08:54:51;7.23;;;5.33;;
15153;SDS011;7677;41.896;25.004;2024-02-14T08:57:18;6.23;;;4.03;;
15153;SDS011;7677;41.896;25.004;2024-02-14T08:59:47;3.87;;;3.20;;
15153;SDS011;7677;41.896;25.004;2024-02-14T09:02:14;5.53;;;3.43;;
15153;SDS011;7677;41.896;25.004;2024-02-14T09:04:43;10.47;;;6.50;;
15153;SDS011;7677;41.896;25.004;2024-02-14T09:07:10;7.47;;;5.37;;
15153;SDS011;7677;41.896;25.004;2024-02-14T09:09:38;7.67;;;5.20;;
15153;SDS011;7677;41.896;25.004;2024-02-14T09:12:06;5.70;;;4.13;;
15153;SDS011;7677;41.896;25.004;2024-02-14T09:14:33;4.60;;;3.80;;
15153;SDS011;7677;41.896;25.004;2024-02-14T09:17:02;7.90;;;4.67;;
15153;SDS011;7677;41.896;25.004;2024-02-14T09:19:29;7.17;;;4.80;;
15153;SDS011;7677;41.896;25.004;2024-02-14T09:21:56;8.87;;;4.30;;
15153;SDS011;7677;41.896;25.004;2024-02-14T09:24:24;3.60;;;3.27;;
15153;SDS011;7677;41.896;25.004;2024-02-14T09:26:51;3.87;;;3.10;;
15153;SDS011;7677;41.896;25.004;2024-02-14T09:29:18;4.67;;;3.53;;
15153;SDS011;7677;41.896;25.004;2024-02-14T09:31:45;6.27;;;4.17;;
15153;SDS011;7677;41.896;25.004;2024-02-14T09:34:15;4.07;;;3.10;;
15153;SDS011;7677;41.896;25.004;2024-02-14T09:36:44;10.90;;;6.50;;
15153;SDS011;7677;41.896;25.004;2024-02-14T09:39:11;9.70;;;5.87;;
15153;SDS011;7677;41.896;25.004;2024-02-14T09:41:42;10.70;;;6.63;;
15153;SDS011;7677;41.896;25.004;2024-02-14T09:44:12;8.40;;;6.23;;
15153;SDS011;7677;41.896;25.004;2024-02-14T09:46:39;8.00;;;5.40;;
15153;SDS011;7677;41.896;25.004;2024-02-14T09:49:07;7.53;;;5.67;;
15153;SDS011;7677;41.896;25.004;2024-02-14T09:51:36;7.37;;;5.33;;
15153;SDS011;7677;41.896;25.004;2024-02-14T09:54:04;7.50;;;4.83;;
15153;SDS011;7677;41.896;25.004;2024-02-14T09:56:31;5.57;;;4.30;;
15153;SDS011;7677;41.896;25.004;2024-02-14T09:58:59;6.47;;;4.13;;
15153;SDS011;7677;41.896;25.004;2024-02-14T10:01:28;4.50;;;3.80;;
15153;SDS011;7677;41.896;25.004;2024-02-14T10:03:55;4.17;;;3.80;;
15153;SDS011;7677;41.896;25.004;2024-02-14T10:06:22;7.00;;;4.33;;
15153;SDS011;7677;41.896;25.004;2024-02-14T10:08:52;8.93;;;6.10;;
15153;SDS011;7677;41.896;25.004;2024-02-14T10:11:19;7.87;;;5.60;;
15153;SDS011;7677;41.896;25.004;2024-02-14T10:13:48;10.70;;;5.40;;
15153;SDS011;7677;41.896;25.004;2024-02-14T10:16:18;5.27;;;4.77;;
15153;SDS011;7677;41.896;25.004;2024-02-14T10:18:46;6.23;;;4.50;;
15153;SDS011;7677;41.896;25.004;2024-02-14T10:21:14;6.20;;;5.07;;
15153;SDS011;7677;41.896;25.004;2024-02-14T10:23:42;7.60;;;4.90;;
15153;SDS011;7677;41.896;25.004;2024-02-14T10:26:11;6.13;;;5.13;;
15153;SDS011;7677;41.896;25.004;2024-02-14T10:28:40;8.40;;;6.30;;
15153;SDS011;7677;41.896;25.004;2024-02-14T10:31:09;21.17;;;9.47;;
15153;SDS011;7677;41.896;25.004;2024-02-14T10:33:38;20.90;;;8.37;;
15153;SDS011;7677;41.896;25.004;2024-02-14T10:36:06;5.67;;;3.23;;
15153;SDS011;7677;41.896;25.004;2024-02-14T10:38:34;8.53;;;4.83;;
15153;SDS011;7677;41.896;25.004;2024-02-14T10:41:02;7.00;;;4.30;;
15153;SDS011;7677;41.896;25.004;2024-02-14T10:43:31;6.70;;;4.50;;
15153;SDS011;7677;41.896;25.004;2024-02-14T10:45:59;6.33;;;4.90;;
15153;SDS011;7677;41.896;25.004;2024-02-14T10:48:27;6.40;;;5.80;;
15153;SDS011;7677;41.896;25.004;2024-02-14T10:50:58;7.13;;;5.40;;
15153;SDS011;7677;41.896;25.004;2024-02-14T10:53:26;6.03;;;5.33;;
15153;SDS011;7677;41.896;25.004;2024-02-14T10:55:56;5.40;;;4.90;;
15153;SDS011;7677;41.896;25.004;2024-02-14T10:58:25;6.30;;;5.23;;
15153;SDS011;7677;41.896;25.004;2024-02-14T11:00:56;10.27;;;7.60;;
15153;SDS011;7677;41.896;25.004;2024-02-14T11:03:24;13.43;;;10.10;;
15153;SDS011;7677;41.896;25.004;2024-02-14T11:05:54;10.73;;;9.10;;
15153;SDS011;7677;41.896;25.004;2024-02-14T11:08:28;10.07;;;7.13;;
15153;SDS011;7677;41.896;25.004;2024-02-14T11:10:58;4.93;;;4.20;;
15153;SDS011;7677;41.896;25.004;2024-02-14T11:13:26;6.50;;;4.33;;
15153;SDS011;7677;41.896;25.004;2024-02-14T11:15:54;4.37;;;3.70;;
15153;SDS011;7677;41.896;25.004;2024-02-14T11:18:26;4.37;;;3.70;;
15153;SDS011;7677;41.896;25.004;2024-02-14T11:20:55;7.47;;;4.83;;
15153;SDS011;7677;41.896;25.004;2024-02-14T11:23:23;5.97;;;4.33;;
15153;SDS011;7677;41.896;25.004;2024-02-14T11:25:59;3.97;;;3.57;;
15153;SDS011;7677;41.896;25.004;2024-02-14T11:28:27;3.60;;;3.27;;
15153;SDS011;7677;41.896;25.004;2024-02-14T11:30:58;3.07;;;2.77;;
15153;SDS011;7677;41.896;25.004;2024-02-14T11:33:30;2.87;;;2.57;;
15153;SDS011;7677;41.896;25.004;2024-02-14T11:35:57;2.57;;;2.33;;
15153;SDS011;7677;41.896;25.004;2024-02-14T11:38:26;2.80;;;2.53;;
15153;SDS011;7677;41.896;25.004;2024-02-14T11:40:55;2.60;;;2.03;;
15153;SDS011;7677;41.896;25.004;2024-02-14T11:43:22;2.57;;;2.37;;
15153;SDS011;7677;41.896;25.004;2024-02-14T11:45:50;2.30;;;2.10;;
15153;SDS011;7677;41.896;25.004;2024-02-14T11:48:18;2.40;;;2.17;;
15153;SDS011;7677;41.896;25.004;2024-02-14T11:50:47;2.30;;;2.10;;
15153;SDS011;7677;41.896;25.004;2024-02-14T11:53:14;1.80;;;1.70;;
15153;SDS011;7677;41.896;25.004;2024-02-14T11:55:44;1.70;;;1.60;;
15153;SDS011;7677;41.896;25.004;2024-02-14T11:58:13;1.87;;;1.77;;
15153;SDS011;7677;41.896;25.004;2024-02-14T12:00:42;2.03;;;1.93;;
15153;SDS011;7677;41.896;25.004;2024-02-14T12:03:10;3.03;;;2.47;;
15153;SDS011;7677;41.896;25.004;2024-02-14T12:05:39;2.73;;;2.30;;
15153;SDS011;7677;41.896;25.004;2024-02-14T12:08:09;2.90;;;2.20;;
15153;SDS011;7677;41.896;25.004;2024-02-14T12:10:37;2.80;;;2.60;;
15153;SDS011;7677;41.896;25.004;2024-02-14T12:13:06;3.43;;;2.67;;
15153;SDS011;7677;41.896;25.004;2024-02-14T12:15:37;3.10;;;2.70;;
15153;SDS011;7677;41.896;25.004;2024-02-14T12:18:05;3.27;;;2.53;;
15153;SDS011;7677;41.896;25.004;2024-02-14T12:20:32;8.10;;;4.37;;
15153;SDS011;7677;41.896;25.004;2024-02-14T12:23:01;4.07;;;3.63;;
15153;SDS011;7677;41.896;25.004;2024-02-14T12:25:30;4.77;;;3.03;;
15153;SDS011;7677;41.896;25.004;2024-02-14T12:27:58;6.73;;;4.37;;
15153;SDS011;7677;41.896;25.004;2024-02-14T12:30:28;6.97;;;4.40;;
15153;SDS011;7677;41.896;25.004;2024-02-14T12:33:10;4.70;;;3.93;;
15153;SDS011;7677;41.896;25.004;2024-02-14T12:35:40;6.60;;;4.20;;
15153;SDS011;7677;41.896;25.004;2024-02-14T12:38:09;5.87;;;4.23;;
15153;SDS011;7677;41.896;25.004;2024-02-14T12:40:38;6.87;;;4.87;;
15153;SDS011;7677;41.896;25.004;2024-02-14T12:43:07;5.10;;;3.87;;
15153;SDS011;7677;41.896;25.004;2024-02-14T12:45:34;5.57;;;4.70;;
15153;SDS011;7677;41.896;25.004;2024-02-14T12:48:02;5.47;;;4.40;;
15153;SDS011;7677;41.896;25.004;2024-02-14T12:50:30;7.73;;;4.40;;
15153;SDS011;7677;41.896;25.004;2024-02-14T12:52:57;8.10;;;5.40;;
15153;SDS011;7677;41.896;25.004;2024-02-14T12:55:25;5.53;;;3.90;;
15153;SDS011;7677;41.896;25.004;2024-02-14T12:57:55;5.87;;;4.90;;
15153;SDS011;7677;41.896;25.004;2024-02-14T13:00:22;5.20;;;4.17;;
15153;SDS011;7677;41.896;25.004;2024-02-14T13:02:50;10.00;;;7.50;;
15153;SDS011;7677;41.896;25.004;2024-02-14T13:05:17;6.73;;;5.17;;
15153;SDS011;7677;41.896;25.004;2024-02-14T13:07:45;6.23;;;5.27;;
15153;SDS011;7677;41.896;25.004;2024-02-14T13:10:12;4.67;;;4.23;;
15153;SDS011;7677;41.896;25.004;2024-02-14T13:12:39;8.07;;;4.30;;
15153;SDS011;7677;41.896;25.004;2024-02-14T13:15:10;8.07;;;6.60;;
15153;SDS011;7677;41.896;25.004;2024-02-14T13:17:37;8.07;;;5.93;;
15153;SDS011;7677;41.896;25.004;2024-02-14T13:20:05;7.70;;;6.40;;
15153;SDS011;7677;41.896;25.004;2024-02-14T13:22:33;6.37;;;4.47;;
15153;SDS011;7677;41.896;25.004;2024-02-14T13:25:00;3.97;;;3.57;;
15153;SDS011;7677;41.896;25.004;2024-02-14T13:27:28;9.50;;;5.13;;
15153;SDS011;7677;41.896;25.004;2024-02-14T13:29:55;5.80;;;4.93;;
15153;SDS011;7677;41.896;25.004;2024-02-14T13:32:24;9.63;;;7.40;;
15153;SDS011;7677;41.896;25.004;2024-02-14T13:34:51;6.47;;;4.43;;
15153;SDS011;7677;41.896;25.004;2024-02-14T13:37:18;4.10;;;3.50;;
15153;SDS011;7677;41.896;25.004;2024-02-14T13:39:46;7.47;;;4.63;;
15153;SDS011;7677;41.896;25.004;2024-02-14T13:42:13;8.27;;;5.27;;
15153;SDS011;7677;41.896;25.004;2024-02-14T13:44:40;8.10;;;5.37;;
15153;SDS011;7677;41.896;25.004;2024-02-14T13:47:08;4.10;;;3.70;;
15153;SDS011;7677;41.896;25.004;2024-02-14T13:49:37;4.37;;;3.97;;
15153;SDS011;7677;41.896;25.004;2024-02-14T13:52:04;6.80;;;4.27;;
15153;SDS011;7677;41.896;25.004;2024-02-14T13:54:31;5.50;;;4.10;;
15153;SDS011;7677;41.896;25.004;2024-02-14T13:56:59;3.47;;;3.17;;
15153;SDS011;7677;41.896;25.004;2024-02-14T13:59:26;4.50;;;3.83;;
15153;SDS011;7677;41.896;25.004;2024-02-14T14:01:53;4.93;;;3.70;;
15153;SDS011;7677;41.896;25.004;2024-02-14T14:04:21;3.63;;;2.97;;
15153;SDS011;7677;41.896;25.004;2024-02-14T14:06:49;3.93;;;3.33;;
15153;SDS011;7677;41.896;25.004;2024-02-14T14:09:17;4.07;;;3.20;;
15153;SDS011;7677;41.896;25.004;2024-02-14T14:11:44;3.83;;;2.70;;
15153;SDS011;7677;41.896;25.004;2024-02-14T14:14:15;2.90;;;2.60;;
15153;SDS011;7677;41.896;25.004;2024-02-14T14:16:44;2.90;;;2.57;;
15153;SDS011;7677;41.896;25.004;2024-02-14T14:19:11;5.67;;;3.90;;
15153;SDS011;7677;41.896;25.004;2024-02-14T14:21:38;6.37;;;4.97;;
15153;SDS011;7677;41.896;25.004;2024-02-14T14:24:07;5.03;;;2.70;;
15153;SDS011;7677;41.896;25.004;2024-02-14T14:26:34;4.97;;;3.20;;
15153;SDS011;7677;41.896;25.004;2024-02-14T14:29:03;4.60;;;2.77;;
15153;SDS011;7677;41.896;25.004;2024-02-14T14:31:30;6.23;;;3.50;;
15153;SDS011;7677;41.896;25.004;2024-02-14T14:33:59;12.03;;;5.00;;
15153;SDS011;7677;41.896;25.004;2024-02-14T14:36:26;5.27;;;4.07;;
15153;SDS011;7677;41.896;25.004;2024-02-14T14:38:53;5.97;;;3.67;;
15153;SDS011;7677;41.896;25.004;2024-02-14T14:41:22;8.17;;;5.67;;
15153;SDS011;7677;41.896;25.004;2024-02-14T14:43:49;5.33;;;4.20;;
15153;SDS011;7677;41.896;25.004;2024-02-14T14:46:16;6.80;;;5.03;;
15153;SDS011;7677;41.896;25.004;2024-02-14T14:48:43;7.07;;;5.10;;
15153;SDS011;7677;41.896;25.004;2024-02-14T14:51:11;8.37;;;4.57;;
15153;SDS011;7677;41.896;25.004;2024-02-14T14:53:38;9.47;;;5.83;;